Latest Weather Observations for Burketown Airport

IDQ60801

Issued at 7:35 pm EST Wednesday 22 October 2014 (issued every 30 minutes, with the page automatically refreshed every 10 minutes)

About weather observations | Map of weather stations | Latest weather observations for QLD | Other Formats
Station Details ID: 029077 Name: BURKETOWN AIRPORT Lat: -17.75 Lon: 139.54 Height: 5.7 m
Data from the previous 72 hours. | See also: Recent months at Burketown Airport
Date/Time
EST
Temp
°C
App
Temp
°C
Dew
Point
Rel
Hum
%
Delta-T
°C
Wind Press
QNH
hPa
Press
MSL
hPa
Rain
since 9 am
mm
Dir
 
Spd
km/h
Gust
km/h
Spd
kts
Gust
kts
22/07:30pm 26.6 24.6 11.5 39 8.6 NNW 13 15 7 8 1013.0 - 0.0
22/07:00pm 28.3 26.3 11.4 35 9.7 N 13 15 7 8 1012.8 - 0.0
22/06:30pm 30.5 27.9 11.9 31 10.9 N 17 22 9 12 1012.7 - 0.0
22/06:00pm 31.6 28.6 11.9 30 11.6 N 19 24 10 13 1012.5 1012.4 0.0
22/05:30pm 32.6 29.7 12.3 29 12.0 N 19 24 10 13 1012.3 - 0.0
22/05:00pm 32.6 30.1 12.3 29 12.0 N 17 26 9 14 1012.3 - 0.0
22/04:30pm 33.4 31.3 12.4 28 12.5 N 15 22 8 12 1012.5 - 0.0
22/04:00pm 32.6 30.9 12.3 29 12.0 N 13 19 7 10 1012.7 - 0.0
22/03:30pm 32.2 30.1 12.4 30 11.7 NNE 15 24 8 13 1013.1 - 0.0
22/03:00pm 32.3 31.0 12.5 30 11.8 NE 11 19 6 10 1013.4 1013.3 0.0
22/02:30pm 32.9 30.4 13.5 30 11.7 N 19 32 10 17 1013.9 - 0.0
22/02:00pm 31.5 28.6 12.8 32 11.1 NNE 20 30 11 16 1014.5 - 0.0
22/01:30pm 31.7 28.5 13.0 32 11.2 NE 22 33 12 18 1015.1 - 0.0
22/01:00pm 31.8 29.3 14.0 34 10.8 NE 20 35 11 19 1015.5 - 0.0
22/12:30pm 31.5 28.4 13.3 33 10.9 NE 22 33 12 18 1015.9 - 0.0
22/12:00pm 31.5 27.9 14.2 35 10.5 NE 26 37 14 20 1016.4 1016.3 0.0
22/11:30am 31.1 27.5 14.3 36 10.2 NE 26 39 14 21 1016.7 - 0.0
22/11:00am 30.9 27.9 14.9 37 9.8 NE 24 33 13 18 1017.0 - 0.0
22/10:30am 30.4 26.6 15.7 41 9.1 NE 30 37 16 20 1017.3 - 0.0
22/10:00am 30.4 27.5 16.0 41 9.0 ENE 26 37 14 20 1017.4 - 0.0
22/09:30am 29.7 25.5 16.1 43 8.4 NE 33 43 18 23 1017.4 - 0.0
22/09:00am 30.0 26.7 17.1 46 8.1 NE 30 41 16 22 1017.4 1017.3 0.0
22/08:30am 29.0 25.6 17.8 50 7.1 NE 32 41 17 22 1017.2 - 0.0
22/08:00am 28.4 26.0 18.2 54 6.5 NE 28 39 15 21 1016.9 - 0.0
22/07:30am 26.3 26.4 19.2 65 4.6 E 17 20 9 11 1016.6 - 0.0
22/07:00am 24.1 23.0 15.3 58 5.3 ENE 15 19 8 10 1016.1 - 0.0
22/06:30am 22.2 21.0 14.1 60 4.7 ENE 13 17 7 9 1015.5 - 0.0
22/06:00am 21.4 20.0 13.3 60 4.6 ENE 13 17 7 9 1015.1 1015.0 0.0
22/05:30am 20.4 19.2 12.9 62 4.3 E 11 20 6 11 1014.4 - 0.0
22/05:16am 19.2 14.1 13.2 68 3.4 E 32 41 17 22 1014.6 - 0.0
22/05:00am 17.6 16.8 11.6 68 3.3 WNW 7 9 4 5 1013.6 - 0.0
22/04:30am 17.8 16.5 11.4 66 3.5 N 9 11 5 6 1013.2 - 0.0
22/04:00am 17.8 16.5 11.4 66 3.5 N 9 11 5 6 1013.3 - 0.0
22/03:30am 18.2 15.8 11.3 64 3.8 NNE 15 17 8 9 1013.4 - 0.0
22/03:00am 19.1 18.5 12.4 65 3.7 NNE 7 9 4 5 1013.3 1013.2 0.0
22/02:30am 19.1 19.4 12.1 64 3.9 NNW 2 6 1 3 1013.3 - 0.0
22/02:00am 20.1 19.4 13.3 65 3.9 WSW 9 11 5 6 1013.3 - 0.0
22/01:30am 21.2 21.0 13.1 60 4.6 W 6 9 3 5 1013.6 - 0.0
22/01:00am 21.2 20.4 12.9 59 4.7 NNE 9 15 5 8 1014.1 - 0.0
22/12:30am 21.1 20.8 13.3 61 4.5 WNW 7 11 4 6 1014.1 - 0.0
22/12:00am 21.2 19.6 13.9 63 4.2 W 15 15 8 8 1014.4 1014.3 0.0
 
Date/Time
EST
Temp
°C
App
Temp
°C
Dew
Point
Rel
Hum
%
Delta-T
°C
Wind Press
QNH
hPa
Press
MSL
hPa
Rain
since 9 am
mm
Dir
 
Spd
km/h
Gust
km/h
Spd
kts
Gust
kts
21/11:30pm 21.6 21.2 14.0 62 4.4 W 9 11 5 6 1014.7 - 0.0
21/11:00pm 22.2 21.6 14.6 62 4.5 WNW 11 13 6 7 1015.0 - 0.0
21/10:30pm 22.9 23.7 14.7 60 4.9 WNW 4 11 2 6 1015.0 - 0.0
21/10:00pm 22.9 22.9 15.2 62 4.6 NW 9 9 5 5 1015.0 - 0.0
21/09:30pm 23.6 23.7 15.4 60 4.9 NW 9 11 5 6 1014.8 - 0.0
21/09:00pm 23.6 23.3 14.3 56 5.5 NNW 9 11 5 6 1014.5 1014.4 0.0
21/08:30pm 24.7 24.0 14.2 52 6.2 NNW 11 13 6 7 1014.3 - 0.0
21/08:00pm 25.2 23.9 12.4 45 7.4 NNW 11 13 6 7 1014.1 - 0.0
21/07:30pm 26.5 24.6 11.8 40 8.4 NNW 13 15 7 8 1013.9 - 0.0
21/07:00pm 28.6 26.3 11.6 34 9.8 NNW 15 20 8 11 1013.6 - 0.0
21/06:30pm 30.6 27.6 12.0 32 10.9 NNW 19 24 10 13 1013.3 - 0.0
21/06:00pm 31.9 28.8 11.7 29 11.8 N 19 28 10 15 1013.0 1012.9 0.0
21/05:30pm 33.2 29.8 11.1 26 12.9 NNW 20 28 11 15 1012.8 - 0.0
21/05:00pm 33.2 30.0 11.1 26 12.9 N 19 28 10 15 1012.7 - 0.0
21/04:30pm 33.9 30.8 11.7 26 13.1 N 19 26 10 14 1012.7 - 0.0
21/04:00pm 33.7 31.3 11.5 26 13.1 N 15 24 8 13 1013.0 - 0.0
21/03:30pm 33.1 30.8 11.6 27 12.6 N 15 26 8 14 1013.3 - 0.0
21/03:00pm 32.8 30.0 11.3 27 12.6 NE 17 22 9 12 1013.6 1013.5 0.0
21/02:30pm 32.9 30.5 11.4 27 12.6 NE 15 26 8 14 1014.1 - 0.0
21/02:00pm 32.3 29.0 10.9 27 12.4 NE 19 30 10 16 1014.6 - 0.0
21/01:30pm 31.7 28.6 10.4 27 12.2 ENE 17 24 9 13 1015.4 - 0.0
21/01:00pm 32.1 29.3 11.3 28 12.1 N 17 32 9 17 1016.0 - 0.0
21/12:30pm 32.0 29.1 12.8 31 11.4 ENE 20 35 11 19 1016.6 - 0.0
21/12:00pm 32.7 28.7 11.8 28 12.3 ENE 24 35 13 19 1017.2 1017.1 0.0
21/11:30am 32.3 28.1 12.5 30 11.8 ENE 26 43 14 23 1017.6 - 0.0
21/11:00am 31.4 26.6 11.7 29 11.5 NE 28 39 15 21 1017.8 - 0.0
21/10:30am 31.1 26.0 12.0 31 11.2 ENE 30 39 16 21 1017.9 - 0.0
21/10:00am 31.1 25.8 12.5 32 11.0 NE 32 43 17 23 1018.1 - 0.0
21/09:30am 30.9 26.9 14.1 36 10.2 NE 28 41 15 22 1017.9 - 0.0
21/09:00am 30.2 25.2 13.5 36 10.0 NE 32 41 17 22 1017.8 1017.7 0.0
21/08:30am 29.1 25.8 17.0 48 7.6 NE 30 39 16 21 1017.6 - 0.0
21/08:00am 27.8 27.0 17.9 54 6.3 ENE 19 24 10 13 1017.4 - 0.0
21/07:30am 26.6 25.5 17.4 57 5.8 E 19 28 10 15 1017.1 - 0.0
21/07:00am 24.3 23.9 15.2 57 5.5 ESE 11 15 6 8 1016.8 - 0.0
21/06:30am 22.3 21.9 15.2 64 4.2 ESE 11 13 6 7 1016.3 - 0.0
21/06:00am 21.5 21.0 14.9 66 3.9 ESE 11 13 6 7 1015.6 1015.5 0.0
21/05:30am 21.4 20.6 15.0 67 3.8 E 13 15 7 8 1015.1 - 0.0
21/05:00am 21.8 21.2 14.7 64 4.2 ESE 11 15 6 8 1014.9 - 0.0
21/04:30am 22.5 22.3 15.6 65 4.1 SSE 11 17 6 9 1014.2 - 0.0
21/04:00am 20.6 19.8 15.2 71 3.2 WSW 13 17 7 9 1013.0 - 0.0
21/03:30am 19.7 18.6 14.3 71 3.1 WSW 13 15 7 8 1013.0 - 0.0
21/03:00am 20.1 19.4 14.2 69 3.4 WSW 11 13 6 7 1013.0 1012.9 0.0
21/02:30am 19.6 18.7 13.8 69 3.3 W 11 11 6 6 1013.2 - 0.0
21/02:00am 20.3 20.1 13.7 66 3.8 W 7 9 4 5 1013.6 - 0.0
21/01:30am 21.0 20.3 14.4 66 3.9 WSW 11 13 6 7 1014.1 - 0.0
21/01:00am 21.3 21.1 14.7 66 3.9 W 9 11 5 6 1014.2 - 0.0
21/12:30am 21.2 20.8 15.1 68 3.6 W 11 13 6 7 1014.6 - 0.0
21/12:00am 21.5 21.1 15.1 67 3.8 W 11 13 6 7 1014.6 1014.5 0.0
 
Date/Time
EST
Temp
°C
App
Temp
°C
Dew
Point
Rel
Hum
%
Delta-T
°C
Wind Press
QNH
hPa
Press
MSL
hPa
Rain
since 9 am
mm
Dir
 
Spd
km/h
Gust
km/h
Spd
kts
Gust
kts
20/11:30pm 21.6 20.9 15.4 68 3.7 W 13 15 7 8 1014.9 - 0.0
20/11:00pm 22.1 21.7 16.1 69 3.6 W 13 15 7 8 1014.9 - 0.0
20/10:30pm 21.8 21.6 15.6 68 3.7 W 11 15 6 8 1015.1 - 0.0
20/10:00pm 22.4 22.0 15.3 64 4.2 NW 11 13 6 7 1014.8 - 0.0
20/09:30pm 22.5 22.2 14.4 60 4.8 NW 9 11 5 6 1014.6 - 0.0
20/09:00pm 23.4 23.5 14.4 57 5.3 NNW 7 9 4 5 1014.4 1014.3 0.0
20/08:30pm 23.9 23.3 14.6 56 5.5 NNW 11 13 6 7 1013.8 - 0.0
20/08:00pm 25.2 24.7 14.9 52 6.2 N 11 15 6 8 1013.5 - 0.0
20/07:30pm 26.6 25.8 15.0 49 7.0 N 13 15 7 8 1013.2 - 0.0
20/07:00pm 28.2 27.3 14.8 44 8.1 N 13 17 7 9 1012.9 - 0.0
20/06:30pm 29.8 27.2 13.1 36 9.9 N 19 28 10 15 1012.5 - 0.0
20/06:00pm 31.2 28.1 12.1 31 11.2 N 20 28 11 15 1012.3 1012.2 0.0
20/05:30pm 32.1 29.0 12.3 29 11.7 N 20 26 11 14 1012.0 - 0.0
20/05:00pm 32.6 29.7 12.8 30 11.8 N 20 32 11 17 1011.9 - 0.0
20/04:30pm 33.3 30.6 13.4 30 12.0 N 20 28 11 15 1011.9 - 0.0
20/04:00pm 32.9 29.9 12.5 29 12.1 N 20 30 11 16 1012.0 - 0.0
20/03:30pm 34.0 31.0 12.4 27 12.9 N 20 30 11 16 1012.0 - 0.0
20/03:00pm 34.9 32.1 12.5 25 13.4 N 19 28 10 15 1012.4 1012.3 0.0
20/02:30pm 34.1 32.2 13.0 28 12.7 NNE 15 28 8 15 1013.1 - 0.0
20/02:00pm 33.0 31.4 11.5 27 12.6 N 11 22 6 12 1013.7 - 0.0
20/01:30pm 32.8 30.5 11.9 28 12.3 E 15 26 8 14 1014.3 - 0.0
20/01:00pm 32.1 30.6 11.8 29 11.9 N 11 24 6 13 1015.1 - 0.0
20/12:30pm 31.6 28.4 11.4 29 11.8 NE 19 28 10 15 1016.1 - 0.0
20/12:00pm 31.6 28.6 12.4 31 11.3 NE 20 33 11 18 1016.7 1016.6 0.0
20/11:30am 32.4 28.8 13.1 31 11.6 NE 24 37 13 20 1017.2 - 0.0
20/11:00am 31.2 27.9 13.9 35 10.5 NE 24 33 13 18 1017.6 - 0.0
20/10:30am 30.5 26.3 14.6 38 9.7 ENE 30 41 16 22 1017.9 - 0.0
20/10:00am 30.6 27.3 15.1 39 9.5 ENE 26 35 14 19 1018.3 - 0.0
20/09:30am 30.1 26.3 15.8 42 8.9 ENE 30 39 16 21 1018.3 - 0.0
20/09:00am 29.1 25.1 16.3 46 7.9 ENE 32 44 17 24 1018.0 1017.9 0.0
20/08:30am 29.0 25.1 16.5 46 7.8 NE 32 39 17 21 1017.9 - 0.0
20/08:00am 28.3 26.0 17.5 52 6.8 NE 26 35 14 19 1017.4 - 0.0
20/07:30am 27.3 26.3 18.0 56 5.9 NE 20 26 11 14 1017.1 - 0.0
20/07:00am 26.3 24.7 18.4 61 5.0 NE 24 33 13 18 1016.3 - 0.0
20/06:30am 25.1 24.7 18.8 68 4.0 ENE 19 26 10 14 1016.0 - 0.0
20/06:00am 24.0 22.0 16.5 63 4.6 E 22 30 12 16 1015.4 1015.3 0.0
20/05:30am 23.3 20.8 13.5 54 5.7 ENE 19 24 10 13 1014.8 - 0.0
20/05:00am 21.3 19.6 11.3 53 5.5 E 11 13 6 7 1014.7 - 0.0
20/04:30am 21.0 19.2 10.8 52 5.6 E 11 15 6 8 1014.6 - 0.0
20/04:00am 21.1 18.7 11.4 54 5.4 E 15 26 8 14 1014.3 - 0.0
20/03:30am 18.4 17.3 11.9 66 3.6 WSW 9 11 5 6 1013.2 - 0.0
20/03:00am 19.4 18.3 10.7 57 4.7 SSW 7 9 4 5 1013.1 1013.0 0.0
20/02:30am 19.6 19.4 10.3 55 5.0 SW 2 6 1 3 1013.5 - 0.0
20/02:00am 20.2 19.2 10.9 55 5.1 WSW 7 7 4 4 1013.7 - 0.0
20/01:30am 20.4 19.5 10.8 54 5.2 SW 6 7 3 4 1014.0 - 0.0
20/01:00am 21.2 20.5 11.5 54 5.4 SW 6 7 3 4 1014.4 - 0.0
20/12:30am 21.4 20.7 11.4 53 5.5 W 6 9 3 5 1014.6 - 0.0
20/12:00am 21.5 19.9 11.5 53 5.6 W 11 13 6 7 1014.6 1014.5 0.0
 
Date/Time
EST
Temp
°C
App
Temp
°C
Dew
Point
Rel
Hum
%
Delta-T
°C
Wind Press
QNH
hPa
Press
MSL
hPa
Rain
since 9 am
mm
Dir
 
Spd
km/h
Gust
km/h
Spd
kts
Gust
kts
19/11:30pm 21.8 20.7 11.8 53 5.6 W 9 11 5 6 1014.9 - 0.0
19/11:00pm 21.9 20.6 12.5 55 5.3 W 11 11 6 6 1015.0 - 0.0
19/10:30pm 23.0 22.8 12.9 53 5.8 W 6 7 3 4 1015.2 - 0.0
19/10:00pm 22.9 22.1 12.8 53 5.8 WNW 9 11 5 6 1015.1 - 0.0
19/09:30pm 23.1 22.3 13.0 53 5.8 W 9 9 5 5 1014.9 - 0.0
19/09:00pm 23.0 21.7 12.6 52 5.9 WNW 11 13 6 7 1014.7 1014.6 0.0
19/08:30pm 24.0 22.2 12.0 47 6.8 NNW 13 15 7 8 1014.4 - 0.0
19/08:00pm 24.4 22.1 10.3 41 7.8 NW 13 15 7 8 1014.1 - 0.0

Other Formats:

Comma delimited format used in spreadsheet applications
http://www.bom.gov.au/fwo/IDQ60801/IDQ60801.94260.axf

JavaScript Object Notation format (JSON) in row-major order
http://www.bom.gov.au/fwo/IDQ60801/IDQ60801.94260.json